Time;durP1;ratioP1;P1;durP2;ratioP2;P2;SDS_P1;SDS_P2;PMS_P1;PMS_P2;Temp;Humidity;BMP_temperature;BMP_pressure;BME280_temperature;BME280_humidity;BME280_pressure;Samples;Min_cycle;Max_cycle;Signal;HPM_P1;HPM_P2
2021/05/08 00:00:57;;;;;;;3.87;3.30;;;;;;;13.30;80.02;99291.06;1694114;84;21380;-66
2021/05/08 00:03:24;;;;;;;4.15;3.50;;;;;;;13.30;79.98;99303.44;1694202;84;21417;-66
2021/05/08 00:05:52;;;;;;;6.05;3.80;;;;;;;13.28;79.86;99305.06;1694137;84;21147;-66
2021/05/08 00:08:19;;;;;;;5.92;3.60;;;;;;;13.27;79.85;99308.05;1694153;84;21174;-66
2021/05/08 00:10:47;;;;;;;6.15;3.55;;;;;;;13.26;79.87;99302.25;1694190;84;21413;-66
2021/05/08 00:13:14;;;;;;;6.22;3.80;;;;;;;13.26;79.94;99290.71;1694121;84;21158;-66
2021/05/08 00:15:43;;;;;;;6.70;4.10;;;;;;;13.24;79.78;99279.66;1694224;84;21154;-66
2021/05/08 00:18:11;;;;;;;6.83;4.10;;;;;;;13.25;80.01;99270.31;1694313;84;21178;-64
2021/05/08 00:20:39;;;;;;;6.00;3.58;;;;;;;13.24;79.92;99268.11;1694303;84;21162;-66
2021/05/08 00:23:07;;;;;;;5.30;3.58;;;;;;;13.20;79.66;99272.96;1694225;84;21329;-66
2021/05/08 00:25:34;;;;;;;5.03;3.42;;;;;;;13.18;79.77;99281.99;1694164;84;21492;-66
2021/05/08 00:28:02;;;;;;;7.17;3.60;;;;;;;13.17;79.76;99288.58;1694150;84;21166;-66
2021/05/08 00:30:32;;;;;;;5.25;3.45;;;;;;;13.16;79.89;99291.00;1694190;84;21171;-66
2021/05/08 00:33:00;;;;;;;5.08;3.17;;;;;;;13.13;79.87;99286.81;1694201;84;21468;-66
2021/05/08 00:35:27;;;;;;;4.70;3.10;;;;;;;13.13;80.03;99290.11;1694262;84;21193;-66
2021/05/08 00:37:55;;;;;;;2.92;2.35;;;;;;;13.10;79.89;99295.55;1694185;84;21417;-65
2021/05/08 00:40:23;;;;;;;5.55;3.25;;;;;;;13.07;79.87;99291.06;1694174;84;21182;-66
2021/05/08 00:42:52;;;;;;;5.28;3.62;;;;;;;13.03;79.81;99278.88;1694193;84;21119;-66
2021/05/08 00:45:20;;;;;;;3.95;3.05;;;;;;;13.01;79.91;99272.25;1694175;84;21213;-66
2021/05/08 00:47:49;;;;;;;7.00;3.17;;;;;;;13.04;80.02;99277.27;1694182;83;21476;-66
2021/05/08 00:50:19;;;;;;;4.67;3.02;;;;;;;13.06;79.87;99275.65;1694350;84;21179;-66
2021/05/08 00:52:47;;;;;;;4.08;3.37;;;;;;;13.08;79.82;99269.37;1694151;84;21500;-65
2021/05/08 00:55:15;;;;;;;4.95;3.58;;;;;;;13.09;79.76;99260.04;1694226;84;21209;-66
2021/05/08 00:57:42;;;;;;;4.10;3.27;;;;;;;13.10;79.85;99251.55;1694241;83;21143;-65
2021/05/08 01:00:12;;;;;;;6.75;3.50;;;;;;;13.11;79.99;99251.84;1670011;84;21424;-66
2021/05/08 01:02:40;;;;;;;5.83;3.30;;;;;;;13.13;80.14;99250.23;1694174;84;21866;-66
2021/05/08 01:05:09;;;;;;;5.78;3.45;;;;;;;13.13;80.11;99250.23;1694129;84;21170;-66
2021/05/08 01:07:38;;;;;;;5.53;3.37;;;;;;;13.07;80.12;99245.70;1694314;84;21179;-66
2021/05/08 01:10:07;;;;;;;4.67;3.10;;;;;;;12.98;80.30;99253.45;1694235;84;21187;-66
2021/05/08 01:12:36;;;;;;;4.60;3.20;;;;;;;12.91;80.46;99253.58;1694131;84;21277;-65
2021/05/08 01:15:06;;;;;;;5.45;3.20;;;;;;;12.87;80.64;99266.67;1694125;84;21839;-65
2021/05/08 01:17:35;;;;;;;5.37;3.30;;;;;;;12.82;80.96;99264.64;1694241;84;21174;-66
2021/05/08 01:20:06;;;;;;;4.22;3.60;;;;;;;12.79;81.23;99273.38;1632397;85;21194;-65
2021/05/08 01:22:33;;;;;;;5.53;3.15;;;;;;;12.79;81.42;99273.38;1654276;85;21203;-65
2021/05/08 01:25:08;;;;;;;5.78;3.72;;;;;;;12.78;81.63;99279.94;1656685;85;21277;-65
2021/05/08 01:27:57;;;;;;;5.70;3.60;;;;;;;12.78;81.68;99281.86;1679900;85;21455;-65
2021/05/08 01:30:32;;;;;;;5.65;3.55;;;;;;;12.80;81.75;99275.05;1680318;85;21148;-65
2021/05/08 01:33:01;;;;;;;8.18;3.55;;;;;;;12.84;81.73;99281.73;1679694;85;21198;-65
2021/05/08 01:35:29;;;;;;;4.58;3.50;;;;;;;12.85;81.73;99291.66;1707025;84;21197;-65
2021/05/08 01:37:58;;;;;;;7.33;4.60;;;;;;;12.90;81.74;99290.39;1694271;84;21179;-66
2021/05/08 01:40:37;;;;;;;5.40;3.58;;;;;;;12.93;81.57;99294.04;1694127;84;21155;-66
2021/05/08 01:43:07;;;;;;;5.55;3.72;;;;;;;12.95;81.38;99278.14;1694160;84;21159;-65
2021/05/08 01:45:34;;;;;;;5.45;2.95;;;;;;;12.96;81.20;99277.06;1694231;84;21397;-66
2021/05/08 01:48:05;;;;;;;5.17;3.08;;;;;;;12.93;80.98;99268.46;1693986;83;21199;-66
2021/05/08 01:50:32;;;;;;;4.83;3.35;;;;;;;12.92;80.75;99273.12;1694239;84;21413;-66
2021/05/08 01:53:00;;;;;;;6.67;3.72;;;;;;;12.88;80.55;99276.05;1694128;84;21390;-66
2021/05/08 01:55:28;;;;;;;5.33;3.52;;;;;;;12.84;80.40;99282.27;1694156;84;21344;-66
2021/05/08 01:57:58;;;;;;;5.75;3.60;;;;;;;12.82;80.46;99286.63;1694077;83;21159;-66
2021/05/08 02:00:31;;;;;;;7.03;3.80;;;;;;;12.82;80.32;99288.01;1693998;84;21163;-66
2021/05/08 02:02:59;;;;;;;5.22;3.75;;;;;;;12.82;80.29;99285.26;1694149;84;21198;-66
2021/05/08 02:05:32;;;;;;;5.55;3.87;;;;;;;12.82;80.34;99277.02;1679515;85;21894;-66
2021/05/08 02:08:03;;;;;;;6.78;4.40;;;;;;;12.85;80.38;99281.20;1679778;84;21120;-66
2021/05/08 02:10:35;;;;;;;5.90;4.00;;;;;;;12.81;80.39;99280.84;1680283;85;21187;-66
2021/05/08 02:13:07;;;;;;;6.53;4.30;;;;;;;12.81;80.38;99286.88;1679431;85;21344;-66
2021/05/08 02:15:35;;;;;;;6.05;4.05;;;;;;;12.80;80.35;99288.78;1680238;85;21294;-65
2021/05/08 02:18:08;;;;;;;5.55;3.85;;;;;;;12.79;80.32;99273.91;1679821;85;21220;-66
2021/05/08 02:20:39;;;;;;;5.85;4.40;;;;;;;12.78;80.23;99284.06;1680298;84;21431;-66
2021/05/08 02:23:11;;;;;;;7.50;4.10;;;;;;;12.72;80.16;99287.77;1679871;85;21171;-66
2021/05/08 02:25:40;;;;;;;5.60;4.10;;;;;;;12.69;80.25;99293.75;1680364;85;21160;-66
2021/05/08 02:28:08;;;;;;;5.45;3.80;;;;;;;12.65;80.15;99293.92;1679774;85;21513;-66
2021/05/08 02:30:39;;;;;;;6.03;3.27;;;;;;;12.62;80.17;99300.73;1680298;85;21175;-65
2021/05/08 02:33:07;;;;;;;6.08;3.60;;;;;;;12.61;80.25;99294.10;1679776;84;21281;-65
2021/05/08 02:35:35;;;;;;;6.47;4.15;;;;;;;12.59;80.32;99283.88;1680302;85;21144;-65
2021/05/08 02:38:04;;;;;;;6.72;3.72;;;;;;;12.58;80.33;99284.96;1679691;85;21155;-66
2021/05/08 02:40:36;;;;;;;9.38;3.90;;;;;;;12.60;80.35;99287.77;1680306;84;21354;-66
2021/05/08 02:43:04;;;;;;;3.98;2.80;;;;;;;12.63;80.40;99279.59;1679783;85;21189;-67
2021/05/08 02:45:32;;;;;;;5.60;3.30;;;;;;;12.65;80.33;99274.15;1680313;85;21152;-67
2021/05/08 02:48:01;;;;;;;5.08;3.60;;;;;;;12.66;80.36;99271.70;1679396;84;21162;-67
2021/05/08 02:50:30;;;;;;;5.40;3.42;;;;;;;12.69;80.39;99269.84;1659431;86;21986;-66
2021/05/08 02:52:59;;;;;;;4.97;2.92;;;;;;;12.73;80.27;99270.75;1650158;86;21302;-67
2021/05/08 02:55:29;;;;;;;5.72;3.20;;;;;;;12.75;80.08;99274.09;1715963;83;21956;-66
2021/05/08 02:58:01;;;;;;;5.20;3.05;;;;;;;12.77;79.89;99276.90;1689489;83;21280;-66
2021/05/08 03:00:26;;;;;;;4.92;3.52;;;;;;;12.78;79.90;99280.48;1715772;83;21397;-66
2021/05/08 03:02:54;;;;;;;5.87;3.60;;;;;;;12.76;79.87;99287.59;1686195;85;21174;-66
2021/05/08 03:05:21;;;;;;;5.72;3.75;;;;;;;12.72;80.06;99276.78;1686091;84;21177;-66
2021/05/08 03:07:51;;;;;;;6.80;3.83;;;;;;;12.70;80.16;99280.30;1686298;85;21178;-67
2021/05/08 03:10:19;;;;;;;8.93;3.65;;;;;;;12.68;80.41;99267.34;1669990;85;21201;-67
2021/05/08 03:12:47;;;;;;;4.70;2.95;;;;;;;12.69;80.64;99256.11;1686167;85;21166;-67
2021/05/08 03:15:15;;;;;;;3.80;2.55;;;;;;;12.74;80.86;99243.56;1715800;83;21134;-66
2021/05/08 03:17:43;;;;;;;3.75;2.80;;;;;;;12.75;80.75;99237.82;1715944;83;21185;-66
2021/05/08 03:20:12;;;;;;;5.00;3.05;;;;;;;12.76;80.56;99251.86;1670115;85;21186;-67
2021/05/08 03:22:40;;;;;;;4.28;3.00;;;;;;;12.75;80.34;99266.68;1670145;85;21278;-67
2021/05/08 03:25:10;;;;;;;7.42;3.30;;;;;;;12.72;80.29;99269.91;1686163;85;21159;-66
2021/05/08 03:27:38;;;;;;;4.87;3.00;;;;;;;12.74;80.34;99280.12;1686245;85;21190;-67
2021/05/08 03:30:07;;;;;;;4.62;2.90;;;;;;;12.74;80.38;99285.63;1670155;85;21180;-67
2021/05/08 03:32:35;;;;;;;5.60;3.10;;;;;;;12.76;80.47;99279.89;1686178;85;21449;-67
2021/05/08 03:35:04;;;;;;;8.10;3.00;;;;;;;12.78;80.49;99278.57;1686304;84;21374;-67
2021/05/08 03:37:32;;;;;;;4.12;2.92;;;;;;;12.78;80.40;99284.06;1686302;84;21170;-66
2021/05/08 03:39:59;;;;;;;4.08;2.70;;;;;;;12.80;80.30;99269.55;1686235;84;21227;-67
2021/05/08 03:42:26;;;;;;;4.92;2.98;;;;;;;12.83;80.23;99270.98;1686228;84;21493;-67
2021/05/08 03:44:54;;;;;;;4.20;3.05;;;;;;;12.82;80.02;99267.39;1686337;85;21205;-66
2021/05/08 03:47:22;;;;;;;4.80;2.90;;;;;;;12.81;80.01;99263.51;1686172;85;21217;-67
2021/05/08 03:49:50;;;;;;;5.92;3.20;;;;;;;12.82;79.98;99266.02;1686264;84;21166;-67
2021/05/08 03:52:17;;;;;;;4.53;2.90;;;;;;;12.83;80.00;99266.31;1715870;83;21246;-67
2021/05/08 03:54:45;;;;;;;8.45;3.45;;;;;;;12.82;80.00;99261.89;1686218;85;21167;-66
2021/05/08 03:57:13;;;;;;;6.42;3.20;;;;;;;12.85;79.81;99256.45;1686205;83;21158;-67
2021/05/08 03:59:40;;;;;;;7.15;3.85;;;;;;;12.87;79.95;99259.27;1686114;85;21437;-66
2021/05/08 04:02:08;;;;;;;5.72;3.87;;;;;;;12.89;80.04;99264.52;1686237;85;21205;-67
2021/05/08 04:04:35;;;;;;;5.33;3.83;;;;;;;12.91;80.20;99256.33;1686276;85;21181;-67
2021/05/08 04:07:02;;;;;;;5.12;3.40;;;;;;;12.90;80.17;99264.28;1715966;83;21459;-66
2021/05/08 04:09:31;;;;;;;4.28;3.42;;;;;;;12.92;80.29;99275.88;1686212;85;21432;-67
2021/05/08 04:11:58;;;;;;;5.92;4.30;;;;;;;12.96;80.35;99275.69;1715848;83;21268;-66
2021/05/08 04:14:26;;;;;;;6.78;4.22;;;;;;;13.01;80.36;99281.33;1686099;85;21195;-66
2021/05/08 04:16:54;;;;;;;7.72;5.28;;;;;;;13.07;80.17;99291.06;1686287;84;21473;-67
2021/05/08 04:19:22;;;;;;;9.08;6.08;;;;;;;13.06;79.82;99288.86;1686249;85;21225;-67
2021/05/08 04:21:50;;;;;;;6.80;4.97;;;;;;;13.07;79.71;99287.78;1686293;84;21434;-67
2021/05/08 04:24:17;;;;;;;8.13;4.12;;;;;;;13.11;79.65;99286.76;1686186;85;21420;-65
2021/05/08 04:26:45;;;;;;;6.50;3.98;;;;;;;13.16;79.62;99291.83;1686218;84;21201;-66
2021/05/08 04:29:13;;;;;;;6.15;3.65;;;;;;;13.19;79.31;99288.62;1686171;84;21158;-66
2021/05/08 04:31:41;;;;;;;5.25;3.52;;;;;;;13.18;78.83;99295.20;1686153;84;21210;-65
2021/05/08 04:34:08;;;;;;;4.85;3.67;;;;;;;13.16;78.66;99302.00;1686173;85;21206;-66
2021/05/08 04:36:36;;;;;;;5.85;3.70;;;;;;;13.11;78.52;99314.26;1686201;85;21404;-65
2021/05/08 04:39:03;;;;;;;8.20;4.10;;;;;;;13.01;78.32;99312.95;1715965;83;21181;-68
2021/05/08 04:41:30;;;;;;;6.22;4.42;;;;;;;12.94;78.09;99308.09;1686206;85;21431;-66
2021/05/08 04:43:58;;;;;;;6.22;4.20;;;;;;;12.90;78.15;99308.80;1686465;84;21416;-66
2021/05/08 04:46:26;;;;;;;7.03;4.17;;;;;;;12.87;78.49;99309.28;1686247;84;21206;-66
2021/05/08 04:48:54;;;;;;;6.00;4.25;;;;;;;12.83;78.55;99310.30;1689760;83;21201;-66
2021/05/08 04:51:22;;;;;;;5.47;4.12;;;;;;;12.83;78.79;99321.83;1694260;84;21170;-66
2021/05/08 04:53:50;;;;;;;7.08;4.53;;;;;;;12.79;78.64;99324.22;1694227;84;21480;-66
2021/05/08 04:56:17;;;;;;;6.35;4.65;;;;;;;12.78;78.78;99329.42;1694114;84;21202;-66
2021/05/08 04:58:45;;;;;;;12.15;4.75;;;;;;;12.79;78.84;99331.09;1706931;82;21403;-65
2021/05/08 05:01:14;;;;;;;8.85;4.55;;;;;;;12.79;78.75;99328.34;1693993;84;21159;-67
2021/05/08 05:03:42;;;;;;;5.58;4.22;;;;;;;12.79;78.63;99335.22;1694150;84;21438;-66
2021/05/08 05:06:09;;;;;;;5.17;3.80;;;;;;;12.79;78.53;99337.97;1694151;84;21234;-66
2021/05/08 05:08:37;;;;;;;6.50;3.40;;;;;;;12.79;78.11;99346.75;1694117;84;21186;-66
2021/05/08 05:11:05;;;;;;;6.72;4.00;;;;;;;12.81;77.67;99345.97;1694102;84;21127;-67
2021/05/08 05:13:33;;;;;;;5.45;4.05;;;;;;;12.80;77.26;99337.42;1694106;84;21179;-66
2021/05/08 05:16:00;;;;;;;6.53;4.47;;;;;;;12.78;77.14;99340.95;1694101;84;21423;-65
2021/05/08 05:18:31;;;;;;;5.97;4.00;;;;;;;12.76;77.15;99338.44;1694071;84;21288;-65
2021/05/08 05:20:59;;;;;;;6.08;3.67;;;;;;;12.76;76.88;99338.44;1694227;84;21544;-65
2021/05/08 05:23:27;;;;;;;6.25;3.92;;;;;;;12.73;76.85;99337.55;1694156;84;21445;-65
2021/05/08 05:25:57;;;;;;;5.17;3.85;;;;;;;12.71;76.69;99324.58;1694147;84;21840;-65
2021/05/08 05:28:26;;;;;;;6.05;3.83;;;;;;;12.74;76.67;99324.09;1694206;84;21466;-65
2021/05/08 05:30:54;;;;;;;6.65;3.65;;;;;;;12.75;76.49;99332.64;1694116;84;21163;-65
2021/05/08 05:33:21;;;;;;;6.08;3.52;;;;;;;12.77;76.35;99343.41;1693991;84;21281;-65
2021/05/08 05:35:54;;;;;;;6.22;4.10;;;;;;;12.78;75.99;99335.45;1694143;84;21167;-65
2021/05/08 05:38:22;;;;;;;4.67;3.65;;;;;;;12.76;75.74;99333.48;1694079;84;21190;-65
2021/05/08 05:40:52;;;;;;;6.55;3.67;;;;;;;12.78;76.06;99347.28;1694073;84;21163;-66
2021/05/08 05:43:20;;;;;;;4.92;3.50;;;;;;;12.82;76.15;99356.73;1694087;84;21273;-67
2021/05/08 05:45:48;;;;;;;4.30;3.12;;;;;;;12.86;75.66;99355.72;1694112;84;21158;-65
2021/05/08 05:48:15;;;;;;;5.20;2.90;;;;;;;12.84;74.66;99362.83;1694140;83;21385;-66
2021/05/08 05:50:43;;;;;;;6.75;3.12;;;;;;;12.82;74.51;99356.73;1694022;84;21281;-66
2021/05/08 05:53:13;;;;;;;4.95;3.47;;;;;;;12.80;74.02;99363.55;1693607;84;21139;-66
2021/05/08 05:55:40;;;;;;;6.95;3.25;;;;;;;12.78;74.07;99354.69;1694089;84;21178;-66
2021/05/08 05:58:07;;;;;;;4.70;3.35;;;;;;;12.75;74.22;99361.50;1694069;83;21206;-68
2021/05/08 06:00:35;;;;;;;6.60;3.95;;;;;;;12.76;74.44;99353.56;1694059;84;21448;-66
2021/05/08 06:03:02;;;;;;;6.12;3.20;;;;;;;12.78;74.26;99340.95;1694210;84;21845;-66
2021/05/08 06:05:29;;;;;;;3.67;2.02;;;;;;;12.81;74.65;99344.06;1694017;84;21179;-66
2021/05/08 06:07:57;;;;;;;4.00;2.40;;;;;;;12.86;74.14;99349.69;1694181;84;21863;-66
2021/05/08 06:10:25;;;;;;;3.33;2.33;;;;;;;12.85;72.77;99355.42;1694049;84;21301;-66
2021/05/08 06:12:52;;;;;;;3.00;2.20;;;;;;;12.74;72.30;99366.70;1694069;84;21211;-67
2021/05/08 06:15:20;;;;;;;4.75;2.12;;;;;;;12.67;72.73;99371.47;1694049;84;21198;-66
2021/05/08 06:17:50;;;;;;;5.25;2.60;;;;;;;12.64;73.10;99380.19;1694054;84;21167;-66
2021/05/08 06:20:17;;;;;;;4.45;2.60;;;;;;;12.64;73.36;99388.44;1694033;84;21182;-66
2021/05/08 06:22:45;;;;;;;3.42;2.27;;;;;;;12.63;73.71;99386.76;1670474;84;21447;-69
2021/05/08 06:25:12;;;;;;;3.37;2.55;;;;;;;12.62;73.38;99385.08;1694099;84;21901;-67
2021/05/08 06:27:40;;;;;;;6.00;2.80;;;;;;;12.57;73.36;99382.20;1694120;84;21512;-67
2021/05/08 06:30:09;;;;;;;3.75;2.25;;;;;;;12.50;73.62;99389.72;1694099;84;21338;-67
2021/05/08 06:32:36;;;;;;;3.10;1.80;;;;;;;12.48;73.79;99395.98;1694065;84;21309;-67
2021/05/08 06:35:05;;;;;;;2.45;1.90;;;;;;;12.42;73.50;99395.01;1693679;84;21409;-66
2021/05/08 06:37:33;;;;;;;3.80;1.70;;;;;;;12.35;73.92;99405.23;1693589;84;21202;-66
2021/05/08 06:40:01;;;;;;;2.65;1.70;;;;;;;12.31;73.91;99407.60;1693765;84;21198;-67
2021/05/08 06:42:31;;;;;;;1.90;1.60;;;;;;;12.20;73.74;99409.77;1693759;84;21195;-66
2021/05/08 06:44:58;;;;;;;2.22;1.70;;;;;;;12.11;74.20;99410.33;1694121;84;21421;-66
2021/05/08 06:47:28;;;;;;;2.65;1.70;;;;;;;12.02;74.58;99408.44;1693935;84;21227;-65
2021/05/08 06:49:57;;;;;;;4.65;3.10;;;;;;;11.95;74.74;99407.69;1705706;83;22090;-67
2021/05/08 06:52:24;;;;;;;4.03;2.50;;;;;;;11.94;75.01;99414.24;1713416;83;21225;-66
2021/05/08 06:54:52;;;;;;;4.00;2.17;;;;;;;11.86;75.15;99415.39;1713465;83;21357;-66
2021/05/08 06:57:19;;;;;;;4.37;2.10;;;;;;;11.83;75.54;99424.09;1713537;82;21464;-66
2021/05/08 06:59:47;;;;;;;2.45;1.80;;;;;;;11.82;75.78;99416.09;1713634;83;21166;-66
2021/05/08 07:02:14;;;;;;;4.25;2.22;;;;;;;11.83;75.97;99414.48;1713507;83;21460;-66
2021/05/08 07:04:42;;;;;;;2.75;1.72;;;;;;;11.81;75.99;99417.99;1713594;83;21146;-66
2021/05/08 07:07:09;;;;;;;3.17;2.17;;;;;;;11.82;76.30;99422.95;1713554;83;21425;-65
2021/05/08 07:09:39;;;;;;;4.30;2.27;;;;;;;11.81;76.50;99431.72;1713601;83;21130;-65
2021/05/08 07:12:08;;;;;;;5.22;2.33;;;;;;;11.80;76.65;99431.95;1713086;83;21483;-66
2021/05/08 07:14:35;;;;;;;3.77;2.33;;;;;;;11.79;76.76;99446.20;1713607;83;21177;-66
2021/05/08 07:17:03;;;;;;;3.47;2.35;;;;;;;11.77;76.61;99454.33;1713532;83;21357;-66
2021/05/08 07:19:32;;;;;;;4.28;2.25;;;;;;;11.71;76.68;99451.43;1713462;83;21762;-67
2021/05/08 07:22:04;;;;;;;3.40;2.10;;;;;;;11.64;76.96;99457.49;1713661;83;21223;-66
2021/05/08 07:24:31;;;;;;;3.15;1.98;;;;;;;11.54;77.08;99461.30;1713584;83;21308;-66
2021/05/08 07:26:58;;;;;;;2.35;1.82;;;;;;;11.44;77.31;99478.80;1713501;83;21273;-66
2021/05/08 07:29:27;;;;;;;2.17;1.80;;;;;;;11.38;77.49;99463.25;1713587;83;21066;-66
2021/05/08 07:31:54;;;;;;;2.87;1.90;;;;;;;11.32;77.53;99486.09;1713474;83;21102;-66
2021/05/08 07:34:22;;;;;;;3.95;2.55;;;;;;;11.30;77.85;99484.95;1713513;83;21054;-66
2021/05/08 07:36:49;;;;;;;3.80;2.22;;;;;;;11.27;77.51;99492.25;1713698;83;21257;-66
2021/05/08 07:39:17;;;;;;;4.37;2.50;;;;;;;11.23;77.51;99501.16;1713597;83;21053;-66
2021/05/08 07:41:44;;;;;;;5.03;2.30;;;;;;;11.18;77.47;99503.72;1713443;83;21066;-66
2021/05/08 07:44:12;;;;;;;3.60;2.10;;;;;;;11.17;77.42;99514.38;1713532;83;21077;-66
2021/05/08 07:46:40;;;;;;;3.80;2.33;;;;;;;11.17;77.46;99521.23;1713570;83;21074;-66
2021/05/08 07:49:08;;;;;;;3.85;2.50;;;;;;;11.15;76.95;99521.99;1711147;83;21808;-66
2021/05/08 07:51:35;;;;;;;2.72;1.80;;;;;;;11.09;77.00;99522.36;1694098;84;21103;-66
2021/05/08 07:54:05;;;;;;;2.70;2.05;;;;;;;11.07;76.23;99536.81;1694180;84;21313;-66
2021/05/08 07:56:34;;;;;;;3.50;1.98;;;;;;;11.01;76.22;99543.99;1694081;84;21087;-66
2021/05/08 07:59:03;;;;;;;2.42;1.87;;;;;;;10.94;76.35;99558.80;1694039;83;21143;-66
2021/05/08 08:01:31;;;;;;;2.52;2.05;;;;;;;10.92;76.26;99566.41;1693742;84;21095;-67
2021/05/08 08:04:00;;;;;;;3.85;2.37;;;;;;;10.88;75.61;99556.95;1693587;84;21079;-65
2021/05/08 08:06:28;;;;;;;3.62;2.15;;;;;;;10.84;75.48;99572.98;1689284;83;21068;-69
2021/05/08 08:08:56;;;;;;;6.55;2.60;;;;;;;10.84;74.89;99558.45;1688803;84;21067;-62
2021/05/08 08:11:25;;;;;;;3.75;2.47;;;;;;;10.75;74.58;99555.12;1685329;84;21064;-73
2021/05/08 08:13:53;;;;;;;4.28;2.80;;;;;;;10.71;75.09;99564.31;1646109;87;21087;-67
2021/05/08 08:16:21;;;;;;;4.53;2.27;;;;;;;10.72;75.43;99586.54;1693282;84;21893;-64
2021/05/08 08:18:48;;;;;;;3.98;2.50;;;;;;;10.65;73.35;99578.88;1693991;84;21784;-65
2021/05/08 08:21:16;;;;;;;2.87;1.98;;;;;;;10.54;72.73;99600.64;1693887;84;21043;-66
2021/05/08 08:23:44;;;;;;;2.80;2.00;;;;;;;10.50;73.02;99596.66;1664339;85;21221;-63
2021/05/08 08:26:11;;;;;;;5.25;2.65;;;;;;;10.47;72.21;99608.36;1653908;86;21343;-64
2021/05/08 08:28:39;;;;;;;4.70;2.05;;;;;;;10.47;72.31;99587.81;1683660;84;21362;-69
2021/05/08 08:31:07;;;;;;;3.40;2.72;;;;;;;10.54;72.28;99599.27;1683704;85;21194;-67
2021/05/08 08:33:35;;;;;;;5.20;3.27;;;;;;;10.50;70.98;99599.39;1671922;85;21045;-68
2021/05/08 08:36:03;;;;;;;2.95;2.17;;;;;;;10.47;71.17;99604.78;1653819;86;21081;-67
2021/05/08 08:38:31;;;;;;;4.10;1.92;;;;;;;10.50;71.80;99592.55;1684347;84;21720;-61
2021/05/08 08:40:59;;;;;;;3.02;1.98;;;;;;;10.51;71.57;99602.45;1705579;84;21353;-64
2021/05/08 08:43:27;;;;;;;4.20;2.05;;;;;;;10.60;72.13;99613.47;1706993;84;21328;-65
2021/05/08 08:45:56;;;;;;;4.42;2.20;;;;;;;10.77;72.91;99613.28;1694198;84;21350;-64
2021/05/08 08:48:24;;;;;;;2.65;2.17;;;;;;;10.83;71.57;99612.41;1694171;84;21075;-65
2021/05/08 08:50:52;;;;;;;3.02;1.75;;;;;;;10.82;70.93;99609.36;1709930;83;21090;-66
2021/05/08 08:53:20;;;;;;;3.55;1.92;;;;;;;10.79;71.28;99618.02;1716828;83;21197;-68
2021/05/08 08:55:55;;;;;;;3.25;2.10;;;;;;;10.74;71.31;99626.05;1716619;83;21301;-65
2021/05/08 08:58:33;;;;;;;2.92;2.17;;;;;;;10.74;71.44;99615.09;1716931;83;21349;-66
2021/05/08 09:00:59;;;;;;;2.87;2.00;;;;;;;10.77;71.66;99625.61;1716531;83;21348;-66
2021/05/08 09:03:26;;;;;;;3.20;1.90;;;;;;;10.79;70.81;99621.59;1699131;83;21423;-74
2021/05/08 09:05:54;;;;;;;3.00;1.87;;;;;;;10.78;69.33;99631.41;1697085;84;21330;-69
2021/05/08 09:08:22;;;;;;;2.90;1.65;;;;;;;10.70;69.18;99631.12;1697202;84;21119;-66
2021/05/08 09:10:51;;;;;;;2.47;1.60;;;;;;;10.62;69.20;99635.48;1696940;83;21062;-70
2021/05/08 09:13:20;;;;;;;2.33;1.70;;;;;;;10.65;69.93;99631.47;1695135;84;21367;-73
2021/05/08 09:15:52;;;;;;;6.72;1.67;;;;;;;10.68;69.01;99635.98;1716662;83;21062;-64
2021/05/08 09:18:37;;;;;;;2.25;1.37;;;;;;;10.66;69.36;99644.11;1716544;83;21238;-66
2021/05/08 09:21:08;;;;;;;3.37;1.70;;;;;;;10.63;69.40;99634.42;1718690;83;21075;-72
2021/05/08 09:23:41;;;;;;;2.65;1.70;;;;;;;10.63;69.12;99644.53;1718519;83;21055;-62
2021/05/08 09:26:14;;;;;;;2.55;1.47;;;;;;;10.59;68.80;99644.66;1716665;83;21084;-66
2021/05/08 09:28:52;;;;;;;3.42;1.52;;;;;;;10.52;67.98;99642.47;1716803;83;21177;-67
2021/05/08 09:31:20;;;;;;;4.17;1.80;;;;;;;10.50;67.91;99642.69;1716919;83;21077;-66
2021/05/08 09:33:51;;;;;;;3.62;1.40;;;;;;;10.52;67.96;99645.21;1716796;83;21331;-69
2021/05/08 09:36:19;;;;;;;2.40;1.35;;;;;;;10.54;68.19;99647.20;1716860;83;21778;-64
2021/05/08 09:38:48;;;;;;;1.92;1.30;;;;;;;10.60;68.70;99656.77;1716634;83;21194;-66
2021/05/08 09:41:19;;;;;;;1.45;1.00;;;;;;;10.69;68.40;99658.21;1716635;83;21871;-65
2021/05/08 09:43:47;;;;;;;1.95;1.57;;;;;;;10.75;68.10;99668.83;1716675;83;21080;-63
2021/05/08 09:46:25;;;;;;;2.17;1.10;;;;;;;10.75;68.43;99664.19;1715742;83;21327;-63
2021/05/08 09:49:17;;;;;;;1.55;1.40;;;;;;;10.82;68.00;99675.13;1716624;83;21088;-64
2021/05/08 09:51:44;;;;;;;2.37;1.35;;;;;;;10.91;68.53;99666.13;1696308;83;21187;-65
2021/05/08 09:54:17;;;;;;;1.95;1.30;;;;;;;10.91;67.03;99672.45;1693772;84;21077;-63
2021/05/08 09:56:47;;;;;;;2.40;1.50;;;;;;;10.89;66.69;99670.98;1670329;84;21215;-68
2021/05/08 09:59:37;;;;;;;3.40;1.52;;;;;;;10.89;66.70;99674.56;1693801;83;21127;-65
2021/05/08 10:02:13;;;;;;;2.08;1.60;;;;;;;10.86;66.18;99667.31;1721079;83;21064;-63
2021/05/08 10:04:48;;;;;;;1.45;1.02;;;;;;;10.86;66.67;99675.53;1697965;83;21179;-68
2021/05/08 10:07:27;;;;;;;1.47;1.20;;;;;;;10.86;64.52;99680.48;1665727;85;21076;-64
2021/05/08 10:10:19;;;;;;;1.67;1.40;;;;;;;10.79;64.14;99664.60;1677230;84;21103;-63
2021/05/08 10:12:46;;;;;;;3.17;1.70;;;;;;;10.69;63.64;99678.76;1692734;84;21165;-64
2021/05/08 10:15:15;;;;;;;2.02;1.32;;;;;;;10.73;64.59;99677.80;1691471;84;21190;-64
2021/05/08 10:17:50;;;;;;;1.85;1.22;;;;;;;10.77;64.93;99681.78;1694079;84;21043;-63
2021/05/08 10:20:20;;;;;;;3.00;1.95;;;;;;;10.82;63.99;99691.56;1694072;84;21450;-64
2021/05/08 10:22:54;;;;;;;3.30;1.50;;;;;;;10.87;64.06;99692.28;1693912;84;21299;-61
2021/05/08 10:25:21;;;;;;;1.77;1.30;;;;;;;10.93;63.76;99701.01;1694233;84;21310;-64
2021/05/08 10:27:49;;;;;;;1.57;1.12;;;;;;;10.94;63.72;99713.13;1693994;84;21286;-63
2021/05/08 10:30:38;;;;;;;1.85;1.40;;;;;;;10.98;63.72;99717.12;1693737;84;21158;-67
2021/05/08 10:33:14;;;;;;;2.65;1.00;;;;;;;10.97;64.29;99729.14;1693897;84;21202;-64
2021/05/08 10:35:51;;;;;;;1.97;1.20;;;;;;;11.14;64.81;99733.64;1694293;84;21190;-64
2021/05/08 10:38:27;;;;;;;1.90;1.52;;;;;;;11.30;63.90;99730.92;1694308;84;21294;-64
2021/05/08 10:41:04;;;;;;;1.85;1.30;;;;;;;11.32;63.36;99731.55;1693847;84;21839;-69
2021/05/08 10:43:45;;;;;;;1.92;1.12;;;;;;;11.30;63.83;99735.03;1693717;84;21075;-63
2021/05/08 10:46:18;;;;;;;2.60;1.50;;;;;;;11.34;63.49;99734.91;1693901;84;21044;-66
2021/05/08 10:49:13;;;;;;;1.85;1.50;;;;;;;11.26;62.51;99736.53;1693880;84;21843;-64
2021/05/08 10:51:58;;;;;;;2.55;1.05;;;;;;;11.14;62.22;99724.03;1707680;83;21105;-63
2021/05/08 10:54:45;;;;;;;2.22;1.00;;;;;;;10.99;62.17;99731.66;1713603;83;21043;-64
2021/05/08 10:57:23;;;;;;;1.75;1.10;;;;;;;10.92;62.93;99716.61;1713450;83;21299;-66
2021/05/08 11:00:09;;;;;;;3.70;0.95;;;;;;;10.95;63.08;99738.64;1713344;83;21039;-66
2021/05/08 11:02:44;;;;;;;2.30;1.30;;;;;;;10.92;62.99;99750.88;1718504;83;21098;-65
2021/05/08 11:05:28;;;;;;;4.55;1.20;;;;;;;10.78;63.16;99756.08;1714112;83;21058;-66
2021/05/08 11:07:55;;;;;;;0.82;0.72;;;;;;;10.68;63.96;99777.60;1660331;86;21186;-66
2021/05/08 11:10:37;;;;;;;1.07;0.70;;;;;;;10.58;65.84;99778.57;1692889;84;21099;-66
2021/05/08 11:13:12;;;;;;;1.30;0.90;;;;;;;10.45;65.99;99776.69;1723312;83;21109;-65
2021/05/08 11:15:55;;;;;;;1.17;0.80;;;;;;;10.28;66.08;99791.83;1720331;83;21048;-65
2021/05/08 11:21:21;;;;;;;1.17;0.90;;;;;;;9.95;67.85;99795.89;1718017;82;21660;-66
2021/05/08 11:24:04;;;;;;;0.95;0.75;;;;;;;9.83;68.47;99817.55;1718868;82;21323;-68
2021/05/08 11:26:42;;;;;;;1.55;0.90;;;;;;;9.76;68.76;99806.59;1713221;83;21173;-64
2021/05/08 11:29:29;;;;;;;1.52;1.00;;;;;;;9.66;69.00;99806.11;1739387;82;21023;-71
2021/05/08 11:32:03;;;;;;;2.33;0.80;;;;;;;9.66;70.24;99814.32;1715225;83;21963;-67
2021/05/08 11:34:42;;;;;;;1.50;0.60;;;;;;;9.74;69.70;99822.34;1713281;83;21065;-68
2021/05/08 11:37:14;;;;;;;1.37;0.82;;;;;;;9.85;68.77;99820.39;1712026;83;21069;-66
2021/05/08 11:39:46;;;;;;;2.45;0.90;;;;;;;9.96;68.28;99822.20;1711795;83;21060;-63
2021/05/08 11:42:31;;;;;;;2.52;0.95;;;;;;;9.99;66.30;99865.05;1711753;83;21202;-65
2021/05/08 11:45:10;;;;;;;3.15;1.55;;;;;;;9.99;65.47;99846.42;1712860;82;21961;-64
2021/05/08 11:47:38;;;;;;;4.53;1.30;;;;;;;10.13;64.43;99868.66;1727228;82;21218;-66
2021/05/08 11:50:13;;;;;;;3.33;1.07;;;;;;;10.34;61.59;99847.13;1712783;83;21311;-65